createdAt,value
2019-03-17T00:08:49.136Z,46.80
2019-03-17T00:11:30.432Z,46.50
2019-03-17T00:14:11.800Z,47.80
2019-03-17T00:16:53.300Z,47.50
2019-03-17T00:19:33.523Z,47.60
2019-03-17T00:25:17.849Z,47.30
2019-03-17T00:31:01.933Z,47.80
2019-03-17T00:37:11.668Z,47.50
2019-03-17T00:39:50.417Z,47.70
2019-03-17T00:42:39.621Z,47.60
2019-03-17T00:45:28.256Z,47.70
2019-03-17T00:54:07.680Z,47.00
2019-03-17T00:57:10.190Z,46.40
2019-03-17T00:59:46.875Z,46.30
2019-03-17T01:11:37.259Z,45.20
2019-03-17T01:17:24.911Z,44.70
2019-03-17T01:20:13.512Z,45.30
2019-03-17T01:26:11.694Z,45.20
2019-03-17T01:29:00.365Z,44.90
2019-03-17T01:32:03.346Z,44.80
2019-03-17T01:34:50.995Z,45.10
2019-03-17T01:37:29.688Z,44.60
2019-03-17T01:43:14.056Z,44.80
2019-03-17T01:46:02.739Z,44.70
2019-03-17T01:49:03.187Z,44.90
2019-03-17T01:51:41.727Z,45.20
2019-03-17T01:57:39.874Z,45.00
2019-03-17T02:00:28.513Z,45.10
2019-03-17T02:03:17.108Z,45.50
2019-03-17T02:06:05.750Z,45.10
2019-03-17T02:11:49.044Z,45.20
2019-03-17T02:14:38.115Z,44.60
2019-03-17T02:17:26.676Z,44.80
2019-03-17T02:23:10.687Z,45.50
2019-03-17T02:26:11.056Z,44.60
2019-03-17T02:29:01.276Z,44.70
2019-03-17T02:34:35.385Z,45.60
2019-03-17T02:37:24.177Z,44.70
2019-03-17T02:40:12.767Z,45.10
2019-03-17T02:43:13.085Z,45.20
2019-03-17T02:46:03.703Z,44.90
2019-03-17T02:48:42.316Z,45.20
2019-03-17T02:51:30.933Z,45.70
2019-03-17T02:54:19.884Z,45.50
2019-03-17T02:57:08.812Z,46.30
2019-03-17T03:00:11.455Z,46.80
2019-03-17T03:02:47.803Z,48.10
2019-03-17T03:08:24.704Z,46.40
2019-03-17T03:11:06.507Z,46.50
2019-03-17T03:13:47.610Z,46.50
2019-03-17T03:16:28.435Z,45.30
2019-03-17T03:19:09.146Z,44.70
2019-03-17T03:21:49.992Z,44.70
2019-03-17T03:24:31.755Z,44.50
2019-03-17T03:27:13.040Z,44.30
2019-03-17T03:29:53.810Z,43.70
2019-03-17T03:32:35.453Z,44.60
2019-03-17T03:35:17.133Z,44.30
2019-03-17T03:37:58.705Z,44.00
2019-03-17T03:40:40.058Z,44.20
2019-03-17T03:43:21.722Z,43.00
2019-03-17T03:46:03.186Z,43.00
2019-03-17T03:48:44.087Z,43.20
2019-03-17T03:51:24.845Z,42.50
2019-03-17T03:54:06.436Z,42.60
2019-03-17T03:56:48.033Z,42.70
2019-03-17T03:59:29.745Z,43.50
2019-03-17T04:02:11.101Z,43.00
2019-03-17T04:04:52.672Z,42.80
2019-03-17T04:07:34.150Z,42.80
2019-03-17T04:10:15.691Z,42.80
2019-03-17T04:12:57.355Z,42.70
2019-03-17T04:15:38.141Z,42.60
2019-03-17T04:18:19.551Z,43.00
2019-03-17T04:21:00.343Z,44.60
2019-03-17T04:23:41.706Z,42.80
2019-03-17T04:26:22.420Z,43.60
2019-03-17T04:29:04.075Z,43.30
2019-03-17T04:31:45.576Z,43.00
2019-03-17T04:34:27.082Z,42.60
2019-03-17T04:37:08.580Z,42.60
2019-03-17T04:39:50.035Z,42.60
2019-03-17T04:42:31.383Z,43.20
2019-03-17T04:45:11.181Z,43.70
2019-03-17T04:47:59.820Z,42.30
2019-03-17T04:56:57.064Z,42.60
2019-03-17T04:59:46.039Z,42.30
2019-03-17T05:02:34.688Z,42.30
2019-03-17T05:05:23.284Z,41.90
2019-03-17T05:08:12.003Z,43.00
2019-03-17T05:11:14.818Z,43.00
2019-03-17T05:13:51.142Z,42.90
2019-03-17T05:16:39.787Z,42.80
2019-03-17T05:22:37.924Z,43.00
2019-03-17T05:25:26.511Z,42.50
2019-03-17T05:28:15.780Z,41.90
2019-03-17T05:31:04.587Z,41.50
2019-03-17T05:33:53.190Z,41.50
2019-03-17T05:36:42.324Z,42.40
2019-03-17T05:39:31.007Z,41.50
2019-03-17T05:42:19.568Z,41.10
2019-03-17T05:45:08.621Z,40.80
2019-03-17T05:47:57.631Z,41.10
2019-03-17T05:50:46.216Z,41.60
2019-03-17T05:56:45.064Z,41.30
2019-03-17T05:59:34.054Z,41.50
2019-03-17T06:05:18.324Z,41.80
2019-03-17T06:10:55.313Z,41.30
2019-03-17T06:13:36.590Z,41.70
2019-03-17T06:16:17.387Z,41.20
2019-03-17T06:18:58.984Z,41.20
2019-03-17T06:21:40.476Z,42.50
2019-03-17T06:24:22.093Z,43.20
2019-03-17T06:27:03.733Z,44.50
2019-03-17T06:29:45.276Z,44.60
2019-03-17T06:32:26.057Z,44.70
2019-03-17T06:35:07.761Z,44.60
2019-03-17T06:37:49.306Z,44.70
2019-03-17T06:40:30.934Z,45.60
2019-03-17T06:43:12.647Z,44.80
2019-03-17T06:45:53.908Z,45.20
2019-03-17T06:48:35.086Z,44.60
2019-03-17T06:51:16.844Z,45.20
2019-03-17T06:53:57.843Z,44.70
2019-03-17T06:56:39.378Z,45.60
2019-03-17T06:59:19.023Z,45.10
2019-03-17T07:02:07.923Z,46.10
2019-03-17T07:04:57.089Z,47.40
2019-03-17T07:07:59.885Z,47.80
2019-03-17T07:10:29.507Z,47.70
2019-03-17T07:13:10.530Z,46.80
2019-03-17T07:15:52.169Z,46.90
2019-03-17T07:18:33.761Z,47.90
2019-03-17T07:21:15.357Z,48.50
2019-03-17T07:23:56.684Z,50.40
2019-03-17T07:26:36.686Z,49.70
2019-03-17T07:44:09.342Z,50.70
2019-03-17T07:47:11.969Z,50.40
2019-03-17T07:49:48.740Z,49.60
2019-03-17T07:55:46.863Z,48.10
2019-03-17T07:58:47.456Z,49.20
2019-03-17T08:01:26.080Z,49.80
2019-03-17T08:04:15.004Z,50.20
2019-03-17T08:07:03.903Z,49.60
2019-03-17T08:09:45.192Z,49.80
2019-03-17T08:12:26.659Z,51.90
2019-03-17T08:15:06.839Z,55.70
2019-03-17T08:17:56.099Z,56.40
2019-03-17T08:20:45.320Z,57.80
2019-03-17T08:29:28.581Z,59.20
2019-03-17T08:32:17.173Z,60.40
2019-03-17T08:35:25.107Z,61.70
2019-03-17T08:38:21.756Z,62.30
2019-03-17T08:44:13.486Z,64.20
2019-03-17T08:47:02.373Z,66.90
2019-03-17T08:52:50.506Z,67.20
2019-03-17T08:58:35.413Z,71.10
2019-03-17T09:01:24.415Z,71.30
2019-03-17T09:16:16.907Z,97.60
2019-03-17T09:19:05.894Z,99.90
2019-03-17T09:24:50.253Z,97.10
2019-03-17T09:30:32.599Z,98.10
2019-03-17T09:39:23.795Z,95.10
2019-03-17T09:48:03.792Z,94.10
2019-03-17T10:02:22.131Z,87.10
2019-03-17T10:05:10.852Z,89.90
2019-03-17T10:08:13.851Z,83.80
2019-03-17T10:10:41.961Z,78.90
2019-03-17T10:13:23.677Z,72.40
2019-03-17T10:16:05.154Z,76.40
2019-03-17T10:18:46.092Z,75.60
2019-03-17T10:21:27.551Z,75.10
2019-03-17T10:24:07.232Z,72.20
2019-03-17T10:26:56.071Z,74.80
2019-03-17T10:32:39.952Z,68.50
2019-03-17T10:35:28.860Z,67.30
2019-03-17T10:38:17.431Z,66.40
2019-03-17T10:41:06.092Z,68.10
2019-03-17T10:44:08.652Z,63.80
2019-03-17T10:49:40.249Z,64.40
2019-03-17T10:52:28.856Z,59.10
2019-03-17T10:55:17.803Z,59.60
2019-03-17T11:01:08.425Z,56.70
2019-03-17T11:03:49.820Z,58.40
2019-03-17T11:06:30.677Z,56.30
2019-03-17T11:09:11.595Z,57.40
2019-03-17T11:11:52.586Z,60.30
2019-03-17T11:14:33.371Z,58.90
2019-03-17T11:17:15.178Z,59.40
2019-03-17T11:19:56.835Z,59.30
2019-03-17T11:22:38.255Z,59.10
2019-03-17T11:25:19.842Z,56.10
2019-03-17T11:28:00.570Z,55.00
2019-03-17T11:30:41.297Z,50.60
2019-03-17T11:33:23.053Z,49.00
2019-03-17T11:36:04.454Z,51.20
2019-03-17T11:38:46.070Z,54.80
2019-03-17T11:41:27.973Z,52.30
2019-03-17T11:44:09.584Z,52.50
2019-03-17T11:46:51.264Z,51.80
2019-03-17T11:49:32.324Z,51.50
2019-03-17T11:52:13.106Z,50.60
2019-03-17T11:54:54.415Z,51.10
2019-03-17T11:57:35.087Z,51.10
2019-03-17T12:00:16.350Z,49.80
2019-03-17T12:02:57.128Z,54.40
2019-03-17T12:05:38.085Z,59.40
2019-03-17T12:08:19.629Z,61.00
2019-03-17T12:11:00.763Z,59.10
2019-03-17T12:13:42.272Z,61.30
2019-03-17T12:16:24.447Z,65.20
2019-03-17T12:19:05.467Z,73.20
2019-03-17T12:21:47.161Z,77.70
2019-03-17T12:24:28.786Z,84.90
2019-03-17T12:27:10.556Z,87.00
2019-03-17T12:29:52.025Z,87.70
2019-03-17T12:32:33.577Z,89.60
2019-03-17T12:35:15.002Z,85.30
2019-03-17T12:37:55.819Z,83.80
2019-03-17T12:40:37.348Z,79.40
2019-03-17T12:43:18.226Z,78.10
2019-03-17T12:45:59.814Z,73.90
2019-03-17T12:48:41.755Z,71.50
2019-03-17T12:51:23.135Z,69.90
2019-03-17T12:54:04.380Z,68.50
2019-03-17T12:56:45.948Z,71.00
2019-03-17T12:59:27.326Z,71.10
2019-03-17T13:02:08.714Z,72.30
2019-03-17T13:04:50.223Z,71.60
2019-03-17T13:07:31.085Z,70.30
2019-03-17T13:10:16.057Z,70.90
2019-03-17T13:12:54.851Z,70.40
2019-03-17T13:15:35.953Z,66.10
2019-03-17T13:18:17.425Z,63.60
2019-03-17T13:20:58.547Z,61.30
2019-03-17T13:23:39.263Z,61.20
2019-03-17T13:26:21.225Z,58.30
2019-03-17T13:29:02.519Z,54.80
2019-03-17T13:31:44.005Z,54.30
2019-03-17T13:34:25.529Z,55.30
2019-03-17T13:37:07.080Z,51.80
2019-03-17T13:39:47.901Z,50.40
2019-03-17T13:42:29.182Z,51.80
2019-03-17T13:45:10.735Z,49.50
2019-03-17T13:47:53.038Z,44.50
2019-03-17T13:50:34.452Z,39.50
2019-03-17T13:53:15.949Z,39.00
2019-03-17T13:55:57.429Z,35.70
2019-03-17T13:58:39.221Z,37.00
2019-03-17T14:01:20.205Z,37.00
2019-03-17T14:04:01.679Z,36.50
2019-03-17T14:06:43.171Z,36.30
2019-03-17T14:09:24.645Z,38.30
2019-03-17T14:12:06.089Z,38.60
2019-03-17T14:14:47.381Z,38.60
2019-03-17T14:17:28.956Z,36.80
2019-03-17T14:20:10.499Z,30.50
2019-03-17T14:22:51.946Z,31.80
2019-03-17T14:25:33.313Z,31.80
2019-03-17T14:28:14.620Z,32.20
2019-03-17T14:30:56.109Z,31.80
2019-03-17T14:33:37.156Z,32.90
2019-03-17T14:36:18.866Z,30.70
2019-03-17T14:39:00.161Z,37.00
2019-03-17T14:41:41.656Z,44.30
2019-03-17T14:44:23.243Z,50.30
2019-03-17T14:47:04.578Z,62.10
2019-03-17T14:49:46.411Z,73.30
2019-03-17T14:52:27.714Z,78.00
2019-03-17T14:55:09.138Z,87.40
2019-03-17T14:57:50.528Z,93.70
2019-03-17T15:00:31.956Z,95.90
2019-03-17T15:03:14.070Z,99.90
2019-03-17T15:05:54.946Z,99.90
2019-03-17T15:08:35.630Z,99.90
2019-03-17T15:11:17.014Z,99.90
2019-03-17T15:13:58.676Z,99.90
2019-03-17T15:16:40.181Z,95.00
2019-03-17T15:19:21.908Z,91.00
2019-03-17T15:22:03.172Z,83.50
2019-03-17T15:24:44.668Z,84.90
2019-03-17T15:27:25.999Z,89.80
2019-03-17T15:30:07.196Z,92.30
2019-03-17T15:32:48.092Z,92.50
2019-03-17T15:35:29.347Z,96.30
2019-03-17T15:38:10.975Z,94.60
2019-03-17T15:40:52.114Z,98.00
2019-03-17T15:43:33.630Z,95.10
2019-03-17T15:46:15.244Z,92.70
2019-03-17T15:48:56.263Z,93.50
2019-03-17T15:51:37.509Z,84.90
2019-03-17T15:54:22.075Z,91.40
2019-03-17T15:57:02.896Z,91.50
2019-03-17T15:59:44.739Z,82.70
2019-03-17T16:02:26.099Z,86.70
2019-03-17T16:05:07.400Z,87.10
2019-03-17T16:07:48.973Z,89.80
2019-03-17T16:10:30.255Z,83.50
2019-03-17T16:13:11.585Z,85.80
2019-03-17T16:15:53.260Z,92.30
2019-03-17T16:18:34.930Z,92.00
2019-03-17T16:21:16.417Z,84.20
2019-03-17T16:23:57.606Z,82.00
2019-03-17T16:26:38.813Z,82.20
2019-03-17T16:29:20.523Z,79.90
2019-03-17T16:32:01.478Z,81.60
2019-03-17T16:34:43.269Z,84.90
2019-03-17T16:37:25.721Z,79.50
2019-03-17T16:40:06.192Z,80.80
2019-03-17T16:43:06.941Z,81.10
2019-03-17T16:48:41.276Z,81.30
2019-03-17T16:51:30.395Z,82.00
2019-03-17T16:54:19.307Z,84.10
2019-03-17T16:57:08.354Z,83.60
2019-03-17T17:06:18.937Z,76.90
2019-03-17T17:08:55.580Z,71.20
2019-03-17T17:11:58.865Z,70.10
2019-03-17T17:14:35.189Z,75.10
2019-03-17T17:20:56.963Z,77.10
2019-03-17T17:23:57.290Z,75.60
2019-03-17T17:26:37.669Z,74.30
2019-03-17T17:40:59.849Z,72.00
2019-03-17T17:43:41.208Z,71.50
2019-03-17T17:46:22.847Z,70.90
2019-03-17T17:49:04.442Z,72.30
2019-03-17T17:51:45.796Z,70.30
2019-03-17T17:54:27.233Z,66.80
2019-03-17T17:57:08.972Z,67.50
2019-03-17T17:59:50.537Z,65.10
2019-03-17T18:02:32.015Z,65.90
2019-03-17T18:05:13.407Z,65.00
2019-03-17T18:07:54.309Z,69.00
2019-03-17T18:10:35.853Z,65.90
2019-03-17T18:13:17.387Z,66.20
2019-03-17T18:15:58.513Z,61.30
2019-03-17T18:18:39.459Z,60.00
2019-03-17T18:21:20.983Z,56.90
2019-03-17T18:24:02.498Z,55.00
2019-03-17T18:26:44.050Z,51.00
2019-03-17T18:29:25.590Z,49.50
2019-03-17T18:32:07.246Z,50.30
2019-03-17T18:34:50.531Z,49.80
2019-03-17T18:37:30.728Z,50.00
2019-03-17T18:40:12.091Z,50.20
2019-03-17T18:42:52.971Z,50.90
2019-03-17T18:45:34.277Z,53.40
2019-03-17T18:48:15.572Z,53.50
2019-03-17T18:50:56.837Z,54.90
2019-03-17T18:53:37.579Z,56.90
2019-03-17T18:56:18.534Z,56.30
2019-03-17T18:58:59.827Z,58.90
2019-03-17T19:01:41.167Z,57.60
2019-03-17T19:04:20.975Z,55.60
2019-03-17T19:10:18.806Z,53.50
2019-03-17T19:13:21.300Z,53.00
2019-03-17T19:15:58.021Z,53.00
2019-03-17T19:18:46.607Z,53.00
2019-03-17T19:24:30.952Z,52.90
2019-03-17T19:27:19.632Z,53.30
2019-03-17T19:33:48.609Z,54.10
2019-03-17T19:36:27.204Z,54.70
2019-03-17T19:42:25.084Z,53.10
2019-03-17T19:45:01.603Z,53.50
2019-03-17T19:50:49.536Z,53.50
2019-03-17T19:53:38.196Z,54.30
2019-03-17T20:02:35.037Z,56.00
2019-03-17T20:08:22.466Z,55.20
2019-03-17T20:23:10.254Z,58.70
2019-03-17T20:31:49.552Z,60.00
2019-03-17T20:34:38.541Z,60.20
2019-03-17T20:40:22.844Z,60.30
2019-03-17T20:43:04.161Z,59.00
2019-03-17T20:45:45.719Z,59.70
2019-03-17T20:48:27.320Z,59.40
2019-03-17T20:51:08.884Z,60.00
2019-03-17T20:53:50.555Z,60.00
2019-03-17T20:56:31.556Z,60.40
2019-03-17T20:59:13.188Z,60.50
2019-03-17T21:01:54.184Z,61.30
2019-03-17T21:04:35.436Z,62.20
2019-03-17T21:07:17.000Z,61.90
2019-03-17T21:09:58.620Z,62.40
2019-03-17T21:12:40.294Z,62.90
2019-03-17T21:15:21.616Z,63.20
2019-03-17T21:18:03.112Z,61.90
2019-03-17T21:20:44.658Z,61.60
2019-03-17T21:23:26.023Z,60.70
2019-03-17T21:26:08.076Z,60.70
2019-03-17T21:28:49.003Z,61.40
2019-03-17T21:31:30.336Z,61.30
2019-03-17T21:34:11.543Z,62.70
2019-03-17T21:36:53.042Z,63.30
2019-03-17T21:39:33.793Z,63.20
2019-03-17T21:42:14.582Z,63.40
2019-03-17T21:44:56.101Z,62.70
2019-03-17T21:47:37.717Z,64.90
2019-03-17T21:50:19.396Z,64.30
2019-03-17T21:53:00.917Z,64.60
2019-03-17T21:55:42.370Z,65.00
2019-03-17T21:58:23.806Z,65.70
2019-03-17T22:01:05.138Z,65.70
2019-03-17T22:03:47.064Z,65.70
2019-03-17T22:06:28.437Z,66.00
2019-03-17T22:09:09.727Z,65.50
2019-03-17T22:11:51.704Z,66.50
2019-03-17T22:14:33.112Z,66.90
2019-03-17T22:17:14.710Z,66.60
2019-03-17T22:19:55.914Z,66.10
2019-03-17T22:22:37.878Z,66.80
2019-03-17T22:25:19.263Z,66.40
2019-03-17T22:28:08.130Z,65.30
2019-03-17T22:30:44.308Z,65.00
2019-03-17T22:33:25.516Z,65.80
2019-03-17T22:36:06.959Z,66.40
2019-03-17T22:38:48.324Z,66.50
2019-03-17T22:41:29.312Z,66.20
2019-03-17T22:44:10.900Z,65.50
2019-03-17T22:46:52.475Z,64.70
2019-03-17T22:49:33.808Z,65.20
2019-03-17T22:52:15.327Z,65.40
2019-03-17T22:54:56.957Z,65.30
2019-03-17T22:57:38.371Z,64.80
2019-03-17T23:00:24.040Z,65.90
2019-03-17T23:03:03.943Z,65.10
2019-03-17T23:06:05.048Z,65.60
2019-03-17T23:08:43.564Z,66.70
2019-03-17T23:14:41.588Z,64.90
2019-03-17T23:17:30.174Z,64.30
2019-03-17T23:23:25.976Z,64.70
2019-03-17T23:26:16.347Z,63.00
2019-03-17T23:32:16.702Z,63.40
2019-03-17T23:34:55.571Z,63.50
2019-03-17T23:37:44.255Z,64.00
2019-03-17T23:43:42.047Z,65.00
2019-03-17T23:46:23.553Z,66.00
2019-03-17T23:49:04.615Z,67.70
2019-03-17T23:51:46.256Z,69.10
2019-03-17T23:54:27.247Z,70.20
2019-03-17T23:57:09.229Z,69.40
2019-03-17T23:59:50.560Z,69.50
